Time;durP1;ratioP1;P1;durP2;ratioP2;P2;SDS_P1;SDS_P2;PMS_P1;PMS_P2;Temp;Humidity;BMP_temperature;BMP_pressure;BME280_temperature;BME280_humidity;BME280_pressure;Samples;Min_cycle;Max_cycle;Signal;HPM_P1;HPM_P2
2021/12/05 00:22:45;;;;;;;19.23;3.60;;;11.80;96.70;;;;;;5035141;28;20128;-75
2021/12/05 00:25:18;;;;;;;12.10;3.17;;;12.00;96.70;;;;;;5026819;28;20153;-75
2021/12/05 00:27:59;;;;;;;13.80;3.67;;;12.20;96.70;;;;;;5054074;28;20142;-75
2021/12/05 00:49:29;;;;;;;15.60;2.58;;;12.90;96.70;;;;;;4998321;28;20039;-75
2021/12/05 00:52:25;;;;;;;10.05;2.10;;;12.80;96.70;;;;;;5036096;28;20055;-75
2021/12/05 01:00:13;;;;;;;8.73;2.28;;;12.50;96.70;;;;;;4991472;28;20039;-75
2021/12/05 01:08:36;;;;;;;7.72;1.65;;;12.20;96.70;;;;;;5019260;28;20043;-75
2021/12/05 01:14:26;;;;;;;12.65;2.55;;;12.10;96.70;;;;;;5000651;28;20138;-75
2021/12/05 01:16:30;;;;;;;14.25;3.80;;;12.10;96.70;;;;;;4998736;28;20575;-75
2021/12/05 01:19:02;;;;;;;12.30;3.58;;;12.10;96.70;;;;;;5018948;28;20046;-74
2021/12/05 01:21:31;;;;;;;13.07;2.90;;;12.00;96.70;;;;;;5046550;28;20051;-75
2021/12/05 01:24:20;;;;;;;14.70;2.70;;;12.00;96.70;;;;;;4999250;28;20033;-75
2021/12/05 01:39:48;;;;;;;7.78;1.75;;;12.00;96.70;;;;;;5003152;28;20057;-73
2021/12/05 01:56:09;;;;;;;11.80;2.28;;;12.40;96.70;;;;;;5000742;28;20038;-71
2021/12/05 02:37:19;;;;;;;10.23;1.80;;;11.60;96.70;;;;;;4989551;28;20050;-71
2021/12/05 02:40:21;;;;;;;10.82;2.72;;;11.50;96.70;;;;;;5012302;28;20050;-71
2021/12/05 02:45:28;;;;;;;7.90;1.48;;;11.30;96.70;;;;;;5015356;28;20413;-73
2021/12/05 02:48:01;;;;;;;13.07;2.35;;;11.20;96.70;;;;;;4997985;28;20419;-73
2021/12/05 02:50:32;;;;;;;8.15;1.58;;;11.30;96.70;;;;;;4976180;28;20038;-73
2021/12/05 02:53:22;;;;;;;9.93;2.63;;;11.30;96.70;;;;;;4979971;28;20581;-73
2021/12/05 02:55:52;;;;;;;10.38;1.77;;;11.30;96.70;;;;;;5008731;28;20086;-73
2021/12/05 03:01:11;;;;;;;12.43;2.10;;;11.20;96.70;;;;;;4993086;28;21476;-73
2021/12/05 03:03:40;;;;;;;11.32;1.98;;;11.20;96.70;;;;;;5026048;28;20052;-73
2021/12/05 03:06:20;;;;;;;10.52;2.20;;;11.20;96.70;;;;;;5002910;28;20043;-73
2021/12/05 03:08:54;;;;;;;8.32;1.85;;;11.30;96.70;;;;;;4983553;28;20189;-73
2021/12/05 03:11:23;;;;;;;9.35;1.48;;;11.30;96.70;;;;;;5016497;28;20704;-73
2021/12/05 03:13:52;;;;;;;9.98;1.55;;;11.40;96.70;;;;;;5022609;28;20399;-73
2021/12/05 03:16:26;;;;;;;7.80;1.77;;;11.40;96.70;;;;;;4977293;28;20050;-73
2021/12/05 03:18:56;;;;;;;10.45;1.48;;;11.40;96.70;;;;;;4989977;28;20058;-73
2021/12/05 03:21:25;;;;;;;7.45;1.75;;;11.30;96.70;;;;;;4987253;28;20060;-73
2021/12/05 03:23:56;;;;;;;12.30;3.30;;;11.40;96.70;;;;;;4988888;28;20421;-73
2021/12/05 03:26:29;;;;;;;11.65;2.17;;;11.40;96.70;;;;;;5023551;28;20408;-73
2021/12/05 03:28:58;;;;;;;12.10;2.03;;;11.40;96.70;;;;;;4994604;28;20131;-74
2021/12/05 03:31:31;;;;;;;10.27;1.77;;;11.40;96.70;;;;;;5001191;28;20077;-73
2021/12/05 03:34:03;;;;;;;12.48;1.70;;;11.40;96.70;;;;;;5007878;28;20082;-73
2021/12/05 03:36:33;;;;;;;8.23;2.08;;;11.40;96.70;;;;;;4991366;28;20538;-73
2021/12/05 03:39:08;;;;;;;24.20;4.18;;;11.30;96.70;;;;;;4979158;28;20065;-73
2021/12/05 03:41:39;;;;;;;9.05;1.73;;;11.30;96.70;;;;;;5043677;28;20133;-73
2021/12/05 03:44:09;;;;;;;10.13;2.03;;;11.40;96.70;;;;;;5001997;28;20090;-73
2021/12/05 03:46:39;;;;;;;11.73;2.17;;;11.30;96.70;;;;;;4986410;28;20054;-73
2021/12/05 03:49:10;;;;;;;9.38;1.75;;;11.30;96.70;;;;;;5008222;28;20042;-73
2021/12/05 03:51:43;;;;;;;8.65;1.67;;;11.30;96.70;;;;;;5063038;28;20388;-74
2021/12/05 03:54:13;;;;;;;9.82;2.03;;;11.20;96.70;;;;;;5025797;28;20050;-73
2021/12/05 03:56:41;;;;;;;8.02;1.85;;;11.20;96.70;;;;;;4993680;28;20049;-74
2021/12/05 03:59:13;;;;;;;9.30;1.85;;;11.30;96.70;;;;;;5011113;28;20041;-74
2021/12/05 04:01:43;;;;;;;11.80;2.22;;;11.30;96.70;;;;;;5024166;28;20599;-73
2021/12/05 04:04:23;;;;;;;9.00;2.05;;;11.30;96.70;;;;;;5034187;28;20044;-74
2021/12/05 04:06:52;;;;;;;11.95;1.92;;;11.30;96.70;;;;;;4995046;28;20054;-73
2021/12/05 04:09:24;;;;;;;10.20;1.75;;;11.40;96.70;;;;;;5028494;28;20063;-73
2021/12/05 04:12:00;;;;;;;10.32;2.20;;;11.40;96.70;;;;;;5028609;28;20046;-73
2021/12/05 04:14:42;;;;;;;10.98;1.80;;;11.40;96.70;;;;;;5003215;28;20042;-73
2021/12/05 04:17:13;;;;;;;9.25;1.58;;;11.50;96.70;;;;;;5016934;28;20061;-73
2021/12/05 04:19:43;;;;;;;9.07;2.30;;;11.40;96.70;;;;;;4988690;28;20050;-73
2021/12/05 04:22:11;;;;;;;7.85;1.30;;;11.40;96.70;;;;;;4996285;28;20487;-73
2021/12/05 04:24:44;;;;;;;10.75;1.92;;;11.50;96.70;;;;;;5016969;28;20035;-73
2021/12/05 04:27:13;;;;;;;7.57;1.88;;;11.50;96.70;;;;;;5002477;28;20055;-74
2021/12/05 04:29:41;;;;;;;9.95;1.73;;;11.50;96.70;;;;;;5018773;28;20036;-73
2021/12/05 04:32:10;;;;;;;9.32;1.58;;;11.60;96.70;;;;;;5009763;28;20525;-74
2021/12/05 04:34:39;;;;;;;8.32;2.03;;;11.60;96.70;;;;;;5009698;28;20405;-73
2021/12/05 04:37:07;;;;;;;9.32;1.65;;;11.60;96.70;;;;;;5016340;28;20110;-74
2021/12/05 04:39:38;;;;;;;10.13;1.63;;;11.60;96.70;;;;;;5058912;28;20441;-73
2021/12/05 04:42:09;;;;;;;7.78;1.73;;;11.60;96.70;;;;;;5013518;28;20043;-73
2021/12/05 04:44:39;;;;;;;7.82;2.00;;;11.60;96.70;;;;;;4982949;28;20054;-73
2021/12/05 04:47:09;;;;;;;12.48;2.25;;;11.60;96.70;;;;;;4978746;28;20050;-74
2021/12/05 04:49:40;;;;;;;13.52;2.40;;;11.60;96.70;;;;;;5029261;28;20220;-73
2021/12/05 04:52:12;;;;;;;11.68;2.30;;;11.60;96.70;;;;;;5018058;28;20144;-73
2021/12/05 04:54:42;;;;;;;11.15;3.00;;;11.60;96.70;;;;;;4995344;28;20056;-74
2021/12/05 04:57:12;;;;;;;10.43;2.00;;;11.70;96.70;;;;;;5015081;28;20035;-73
2021/12/05 04:59:46;;;;;;;9.77;2.47;;;11.70;96.70;;;;;;5018125;28;20057;-73
2021/12/05 05:02:15;;;;;;;13.00;2.10;;;11.70;96.70;;;;;;5004957;28;20092;-73
2021/12/05 05:04:48;;;;;;;12.20;2.38;;;11.70;96.70;;;;;;5018561;28;20044;-73
2021/12/05 05:07:24;;;;;;;11.45;1.83;;;11.60;96.70;;;;;;5032282;28;20051;-73
2021/12/05 05:09:55;;;;;;;10.70;2.40;;;11.60;96.70;;;;;;5023918;28;20074;-73
2021/12/05 05:12:25;;;;;;;8.15;1.80;;;11.60;96.70;;;;;;5023947;28;20049;-73
2021/12/05 05:14:55;;;;;;;9.90;2.40;;;11.60;96.70;;;;;;5032222;28;20068;-73
2021/12/05 05:17:25;;;;;;;11.00;2.17;;;11.60;96.70;;;;;;5040551;28;20045;-74
2021/12/05 05:19:59;;;;;;;10.77;1.83;;;11.60;96.70;;;;;;4999096;28;20076;-73
2021/12/05 05:25:27;;;;;;;11.88;2.55;;;11.70;96.70;;;;;;5024582;28;20495;-73
2021/12/05 05:30:46;;;;;;;12.18;1.90;;;11.70;96.70;;;;;;5044758;28;20054;-73
2021/12/05 05:44:59;;;;;;;11.98;2.38;;;11.50;96.70;;;;;;5029313;28;20106;-73
2021/12/05 05:47:35;;;;;;;9.02;2.13;;;11.60;96.70;;;;;;4994127;28;20053;-74
2021/12/05 05:50:04;;;;;;;11.95;1.88;;;11.50;96.70;;;;;;5020463;28;20118;-73
2021/12/05 05:52:33;;;;;;;10.23;1.80;;;11.50;96.70;;;;;;5012664;28;20498;-73
2021/12/05 05:55:02;;;;;;;10.77;1.83;;;11.50;96.70;;;;;;4991041;28;20057;-74
2021/12/05 05:57:44;;;;;;;11.57;2.45;;;11.50;96.70;;;;;;4998327;28;20052;-74
2021/12/05 06:00:19;;;;;;;10.25;1.48;;;11.50;96.70;;;;;;5020023;28;20047;-73
2021/12/05 06:05:34;;;;;;;;;;;11.50;96.70;;;;;;5022711;28;20140;-73
2021/12/05 06:08:03;;;;;;;11.98;1.67;;;11.50;96.70;;;;;;5009384;28;20294;-73
2021/12/05 06:10:33;;;;;;;11.73;2.15;;;11.50;96.70;;;;;;5021985;28;20045;-73
2021/12/05 06:13:01;;;;;;;10.40;2.03;;;11.50;96.70;;;;;;5025497;28;20567;-73
2021/12/05 06:15:31;;;;;;;11.45;2.08;;;11.50;96.70;;;;;;5010900;28;20073;-74
2021/12/05 06:18:00;;;;;;;7.30;1.70;;;11.50;96.70;;;;;;5025366;28;20426;-73
2021/12/05 06:20:31;;;;;;;13.90;2.17;;;11.50;96.70;;;;;;4999259;28;20344;-73
2021/12/05 06:23:01;;;;;;;8.43;2.05;;;11.50;96.70;;;;;;5008649;28;20076;-73
2021/12/05 06:25:34;;;;;;;12.30;2.33;;;11.50;96.70;;;;;;4991504;28;20061;-73
2021/12/05 06:28:08;;;;;;;12.63;2.00;;;11.60;96.70;;;;;;4995564;28;20427;-73
2021/12/05 06:41:59;;;;;;;11.40;1.70;;;11.60;96.70;;;;;;5033483;28;20036;-75
2021/12/05 06:47:21;;;;;;;8.82;1.63;;;11.60;96.70;;;;;;5002213;28;20141;-75
2021/12/05 06:49:50;;;;;;;9.35;1.83;;;11.60;96.70;;;;;;5026493;28;20052;-75
2021/12/05 06:52:39;;;;;;;8.30;1.85;;;11.60;96.70;;;;;;5009172;28;20046;-74
2021/12/05 06:55:08;;;;;;;10.75;2.20;;;11.50;96.70;;;;;;5035005;28;20041;-75
2021/12/05 06:57:36;;;;;;;11.85;1.55;;;11.50;96.70;;;;;;5046902;28;20042;-75
2021/12/05 07:00:06;;;;;;;9.20;1.80;;;11.50;96.70;;;;;;5025077;28;20045;-75
2021/12/05 07:02:36;;;;;;;13.60;1.80;;;11.50;96.70;;;;;;5032033;28;20065;-75
2021/12/05 07:05:37;;;;;;;12.57;1.92;;;11.50;96.70;;;;;;5044244;28;20048;-75
2021/12/05 07:08:07;;;;;;;15.93;1.98;;;11.50;96.70;;;;;;5055238;28;20046;-75
2021/12/05 07:10:47;;;;;;;13.15;2.88;;;11.60;96.70;;;;;;5017302;28;20136;-75
2021/12/05 07:18:49;;;;;;;18.42;6.35;;;11.70;96.70;;;;;;5033427;28;20479;-74
2021/12/05 07:40:29;;;;;;;8.88;2.47;;;11.80;96.70;;;;;;4991302;28;20557;-76
2021/12/05 07:43:01;;;;;;;10.98;2.38;;;11.90;96.70;;;;;;4996655;28;20687;-75
2021/12/05 07:45:43;;;;;;;12.50;2.58;;;11.90;96.70;;;;;;4979880;28;20060;-75
2021/12/05 07:48:17;;;;;;;10.55;2.40;;;11.90;96.70;;;;;;4978887;28;20423;-75
2021/12/05 07:51:20;;;;;;;9.75;2.05;;;11.90;96.70;;;;;;4997747;28;20038;-74
2021/12/05 07:56:16;;;;;;;8.77;2.05;;;12.00;96.70;;;;;;5060219;28;20053;-75
2021/12/05 08:15:39;;;;;;;13.75;2.58;;;12.20;96.70;;;;;;5013776;28;20112;-75
2021/12/05 08:18:08;;;;;;;12.68;1.80;;;12.10;96.70;;;;;;5010188;28;20045;-73
2021/12/05 08:20:40;;;;;;;14.88;2.13;;;12.00;96.70;;;;;;4993039;28;20056;-73
2021/12/05 08:23:12;;;;;;;10.93;2.10;;;12.00;96.70;;;;;;4986615;28;20133;-73
2021/12/05 08:25:44;;;;;;;8.68;1.55;;;12.00;96.70;;;;;;5030893;28;20052;-74
2021/12/05 08:30:49;;;;;;;12.32;1.77;;;12.00;96.70;;;;;;5065324;28;20049;-74
2021/12/05 08:41:41;;;;;;;9.98;2.25;;;12.10;96.70;;;;;;5013703;28;20050;-73
2021/12/05 09:22:00;;;;;;;10.10;2.28;;;12.20;96.70;;;;;;4928722;28;20113;-74
2021/12/05 09:50:51;;;;;;;7.35;2.15;;;12.00;96.70;;;;;;4998300;28;20146;-76
2021/12/05 10:07:03;;;;;;;13.35;2.47;;;13.20;96.70;;;;;;4958911;28;20046;-74
2021/12/05 10:26:32;;;;;;;6.30;1.52;;;13.90;96.70;;;;;;4975415;28;20409;-72
2021/12/05 10:37:45;;;;;;;8.80;1.52;;;14.30;96.70;;;;;;4962915;28;20396;-71
2021/12/05 10:40:19;;;;;;;8.70;1.20;;;14.40;96.70;;;;;;4955152;28;20444;-71
2021/12/05 10:42:49;;;;;;;9.05;1.30;;;14.20;96.70;;;;;;4978258;28;20043;-71
2021/12/05 10:45:33;;;;;;;7.53;1.38;;;14.00;96.70;;;;;;4960894;28;20623;-72
2021/12/05 10:48:05;;;;;;;5.97;1.23;;;13.80;96.70;;;;;;4956613;28;20046;-72
2021/12/05 10:50:39;;;;;;;7.43;1.00;;;13.70;96.70;;;;;;4960788;28;20385;-71
2021/12/05 10:53:28;;;;;;;6.70;1.48;;;13.90;96.70;;;;;;4978318;28;20559;-72
2021/12/05 10:55:59;;;;;;;7.38;2.00;;;14.10;96.70;;;;;;4959071;28;20104;-72
2021/12/05 10:58:36;;;;;;;7.95;1.30;;;14.20;96.70;;;;;;4977107;28;20148;-71
2021/12/05 11:01:07;;;;;;;10.35;1.50;;;14.10;96.70;;;;;;4974046;28;20047;-72
2021/12/05 11:03:38;;;;;;;9.30;1.40;;;14.20;96.70;;;;;;4944803;28;20051;-72
2021/12/05 11:06:26;;;;;;;10.75;1.65;;;14.30;96.70;;;;;;4948874;28;20059;-72
2021/12/05 11:08:57;;;;;;;7.95;1.35;;;14.10;96.70;;;;;;4943610;28;20603;-72
2021/12/05 11:11:26;;;;;;;6.78;1.45;;;13.90;96.70;;;;;;4949585;28;20050;-72
2021/12/05 11:13:57;;;;;;;6.53;1.27;;;13.70;96.70;;;;;;4962617;28;20047;-72
2021/12/05 11:16:40;;;;;;;8.07;1.40;;;13.60;96.70;;;;;;4966352;28;20078;-71
2021/12/05 11:19:11;;;;;;;6.32;1.42;;;13.60;96.70;;;;;;4966445;28;20122;-72
2021/12/05 11:21:52;;;;;;;6.47;1.02;;;13.50;96.70;;;;;;4963625;28;20046;-72
2021/12/05 11:24:23;;;;;;;7.80;1.30;;;13.50;96.70;;;;;;4943800;28;20852;-72
2021/12/05 11:27:18;;;;;;;8.57;1.48;;;13.50;96.70;;;;;;4963980;28;20047;-71
2021/12/05 11:30:13;;;;;;;4.45;1.10;;;13.50;96.70;;;;;;4947414;28;20487;-71
2021/12/05 11:32:48;;;;;;;7.88;1.42;;;13.50;96.70;;;;;;4945509;28;20535;-71
2021/12/05 11:35:21;;;;;;;9.80;1.20;;;13.30;96.70;;;;;;4945573;28;20050;-71
2021/12/05 11:38:00;;;;;;;8.52;1.15;;;13.50;96.70;;;;;;4946415;28;20057;-71
2021/12/05 11:40:39;;;;;;;4.78;1.15;;;13.40;96.70;;;;;;4964351;28;20073;-71
2021/12/05 11:43:09;;;;;;;4.40;1.20;;;13.40;96.70;;;;;;4936521;28;20081;-71
2021/12/05 11:45:54;;;;;;;8.25;1.27;;;13.30;96.70;;;;;;4965175;28;20115;-71
2021/12/05 11:48:25;;;;;;;7.63;1.88;;;13.50;96.70;;;;;;4965733;28;20507;-72
2021/12/05 11:50:56;;;;;;;11.73;1.52;;;13.70;96.70;;;;;;4945389;28;20141;-71
2021/12/05 11:53:44;;;;;;;8.00;1.45;;;13.80;96.70;;;;;;4945578;28;20963;-71
2021/12/05 11:56:19;;;;;;;6.40;1.60;;;14.00;96.70;;;;;;4945721;28;20057;-72
2021/12/05 11:59:07;;;;;;;6.78;1.50;;;14.00;96.70;;;;;;4962620;28;20105;-71
2021/12/05 12:01:38;;;;;;;6.95;1.27;;;14.20;96.70;;;;;;4929461;29;20420;-71
2021/12/05 12:04:06;;;;;;;13.73;3.08;;;14.30;96.70;;;;;;4929885;29;20138;-72
2021/12/05 12:06:34;;;;;;;7.43;3.22;;;14.40;96.70;;;;;;4944812;29;20106;-71
2021/12/05 12:09:05;;;;;;;6.65;2.05;;;14.40;96.70;;;;;;4913789;29;20047;-71
2021/12/05 12:11:34;;;;;;;9.93;2.28;;;14.40;96.70;;;;;;4928928;29;20158;-71
2021/12/05 12:14:03;;;;;;;5.55;1.60;;;14.50;96.70;;;;;;4944093;28;20059;-71
2021/12/05 12:16:33;;;;;;;7.72;1.95;;;14.60;96.70;;;;;;4947000;29;20047;-71
2021/12/05 12:19:05;;;;;;;7.88;1.50;;;14.50;96.70;;;;;;4945950;29;20154;-71
2021/12/05 12:21:41;;;;;;;7.47;1.63;;;14.40;96.70;;;;;;4945780;28;20043;-71
2021/12/05 12:24:13;;;;;;;8.77;1.67;;;14.50;96.70;;;;;;4927143;29;20050;-71
2021/12/05 12:26:42;;;;;;;5.63;0.98;;;14.70;96.70;;;;;;4946079;29;20862;-71
2021/12/05 12:29:11;;;;;;;5.28;2.00;;;14.80;96.70;;;;;;4944885;29;20043;-71
2021/12/05 12:31:44;;;;;;;5.53;1.20;;;14.80;96.70;;;;;;4929730;29;20422;-71
2021/12/05 12:34:16;;;;;;;5.85;1.45;;;14.70;96.70;;;;;;4945757;29;20058;-72
2021/12/05 12:36:46;;;;;;;4.55;1.27;;;14.50;96.70;;;;;;4945733;29;20043;-72
2021/12/05 12:39:32;;;;;;;6.88;1.52;;;14.40;96.70;;;;;;4946385;29;20564;-71
2021/12/05 12:42:15;;;;;;;7.03;1.43;;;14.40;96.70;;;;;;4928716;29;20054;-71
2021/12/05 12:45:05;;;;;;;10.93;3.22;;;14.40;96.70;;;;;;4945331;29;20054;-71
2021/12/05 12:47:35;;;;;;;9.93;1.90;;;14.50;96.70;;;;;;4939558;29;20140;-71
2021/12/05 12:50:34;;;;;;;4.70;1.40;;;14.60;96.70;;;;;;4945147;28;20047;-70
2021/12/05 12:53:11;;;;;;;6.75;1.98;;;14.50;96.70;;;;;;4848162;29;20477;-70
2021/12/05 12:55:42;;;;;;;;;;;14.30;96.70;;;;;;4849214;29;20057;-71
2021/12/05 12:58:12;;;;;;;6.35;1.33;;;14.10;96.70;;;;;;4844147;29;19939;-70
2021/12/05 13:00:43;;;;;;;6.25;1.20;;;13.90;96.70;;;;;;4857525;29;20108;-70
2021/12/05 13:03:28;;;;;;;5.80;0.95;;;13.80;96.70;;;;;;4867055;29;20504;-70
2021/12/05 13:11:51;;;;;;;4.93;0.75;;;14.20;96.70;;;;;;4864736;29;20061;-71
2021/12/05 13:14:19;;;;;;;8.00;1.48;;;14.20;96.70;;;;;;4864870;29;20592;-71
2021/12/05 13:16:49;;;;;;;12.23;4.70;;;14.30;96.70;;;;;;4867120;29;20459;-70
2021/12/05 13:19:22;;;;;;;6.50;1.63;;;14.40;96.70;;;;;;4867811;29;20474;-70
2021/12/05 13:22:05;;;;;;;10.23;2.50;;;14.40;96.70;;;;;;4869346;29;20057;-70
2021/12/05 13:24:42;;;;;;;13.05;2.72;;;14.40;96.70;;;;;;4851129;29;20238;-70
2021/12/05 13:27:26;;;;;;;10.32;2.72;;;14.40;96.70;;;;;;4902113;29;20502;-70
2021/12/05 13:29:57;;;;;;;8.70;2.40;;;14.30;96.70;;;;;;4935468;29;20505;-71
2021/12/05 13:32:29;;;;;;;9.88;1.92;;;14.10;96.70;;;;;;4942147;29;20124;-71
2021/12/05 13:35:01;;;;;;;6.55;1.15;;;14.00;96.70;;;;;;4927488;29;20415;-70
2021/12/05 13:37:33;;;;;;;6.28;1.30;;;13.80;96.70;;;;;;4926568;29;20047;-71
2021/12/05 13:40:12;;;;;;;6.88;1.40;;;13.60;96.70;;;;;;4945258;29;20098;-71
2021/12/05 13:42:46;;;;;;;7.82;2.70;;;13.50;96.70;;;;;;4939992;29;20062;-71
2021/12/05 13:45:21;;;;;;;8.73;1.42;;;13.40;96.70;;;;;;4940532;29;20067;-71
2021/12/05 13:48:15;;;;;;;9.57;2.40;;;13.30;96.70;;;;;;4942206;29;20055;-71
2021/12/05 13:50:56;;;;;;;6.68;1.83;;;13.20;96.70;;;;;;4942074;28;20055;-71
2021/12/05 13:53:34;;;;;;;5.90;1.38;;;13.10;96.70;;;;;;4939891;29;20500;-71
2021/12/05 13:56:06;;;;;;;9.68;1.50;;;13.10;96.70;;;;;;4938415;29;20058;-71
2021/12/05 13:58:42;;;;;;;9.07;2.30;;;13.00;96.70;;;;;;4943784;29;20049;-71
2021/12/05 14:01:17;;;;;;;10.93;3.00;;;13.00;96.70;;;;;;4923541;28;20483;-70
2021/12/05 14:03:58;;;;;;;8.68;3.33;;;12.90;96.70;;;;;;4941197;28;20497;-70
2021/12/05 14:06:53;;;;;;;11.70;3.38;;;12.90;96.70;;;;;;4955239;28;20046;-71
2021/12/05 14:09:25;;;;;;;6.43;2.22;;;12.90;96.70;;;;;;4944526;28;20055;-71
2021/12/05 14:11:57;;;;;;;7.80;2.60;;;12.80;96.70;;;;;;4947291;28;20101;-71
2021/12/05 14:14:29;;;;;;;8.70;1.98;;;12.80;96.70;;;;;;4941039;28;20051;-70
2021/12/05 14:16:59;;;;;;;10.73;4.68;;;12.70;96.70;;;;;;4962575;28;20050;-70
2021/12/05 14:19:30;;;;;;;9.10;2.40;;;12.70;96.70;;;;;;4943246;28;20043;-70
2021/12/05 14:22:01;;;;;;;9.77;2.10;;;12.60;96.70;;;;;;4942726;28;20060;-70
2021/12/05 14:24:32;;;;;;;9.57;2.60;;;12.60;96.70;;;;;;4943247;28;20252;-70
2021/12/05 14:27:03;;;;;;;9.93;2.78;;;12.50;96.70;;;;;;4941343;28;20047;-70
2021/12/05 14:29:35;;;;;;;10.00;2.78;;;12.50;96.70;;;;;;4940251;28;20063;-70
2021/12/05 14:32:06;;;;;;;9.88;3.70;;;12.50;96.70;;;;;;4920744;28;20109;-70
2021/12/05 14:34:35;;;;;;;20.30;9.20;;;12.40;96.70;;;;;;4963020;28;20070;-70
2021/12/05 14:37:07;;;;;;;27.48;14.48;;;12.40;96.70;;;;;;4923510;28;20046;-70
2021/12/05 14:39:38;;;;;;;23.05;11.68;;;12.40;96.70;;;;;;4962933;28;20053;-71
2021/12/05 14:42:11;;;;;;;55.90;28.58;;;12.40;96.70;;;;;;4950994;28;20129;-71
2021/12/05 14:44:40;;;;;;;31.85;17.02;;;12.30;96.70;;;;;;4959525;28;20134;-71
2021/12/05 14:47:11;;;;;;;24.02;12.30;;;12.30;96.70;;;;;;4950797;28;20051;-71
2021/12/05 14:49:44;;;;;;;22.13;11.98;;;12.30;96.70;;;;;;4965590;28;20047;-71
2021/12/05 14:52:15;;;;;;;20.85;9.30;;;12.30;96.70;;;;;;4967637;28;20109;-71
2021/12/05 14:54:44;;;;;;;16.73;7.95;;;12.30;96.70;;;;;;4964953;28;20576;-71
2021/12/05 14:57:15;;;;;;;13.25;6.85;;;12.30;96.70;;;;;;4950478;28;20078;-71
2021/12/05 14:59:47;;;;;;;15.23;7.20;;;12.30;96.70;;;;;;4960741;28;20153;-71
2021/12/05 15:02:16;;;;;;;16.88;6.95;;;12.30;96.70;;;;;;4962015;28;20536;-71
2021/12/05 15:04:47;;;;;;;15.45;7.03;;;12.30;96.70;;;;;;4950949;28;20049;-71
2021/12/05 15:07:17;;;;;;;14.45;5.70;;;12.30;96.70;;;;;;4947826;28;20051;-71
2021/12/05 15:09:48;;;;;;;9.77;3.25;;;12.30;96.70;;;;;;4967810;28;20559;-71
2021/12/05 15:12:23;;;;;;;17.73;3.22;;;12.30;96.70;;;;;;4965356;28;20412;-71
2021/12/05 15:14:57;;;;;;;8.88;3.95;;;12.30;96.70;;;;;;4927977;28;20152;-70
2021/12/05 15:17:28;;;;;;;8.27;3.40;;;12.20;96.70;;;;;;4964770;28;20457;-72
2021/12/05 15:19:58;;;;;;;9.82;5.97;;;12.20;96.70;;;;;;4946501;28;20051;-71
2021/12/05 15:22:40;;;;;;;8.05;4.40;;;12.20;96.70;;;;;;4943239;28;20047;-74
2021/12/05 15:25:11;;;;;;;12.75;4.95;;;12.10;96.70;;;;;;4966290;28;20043;-73
2021/12/05 15:27:39;;;;;;;7.60;2.40;;;12.00;96.70;;;;;;4947902;28;20042;-72
2021/12/05 15:30:12;;;;;;;6.78;1.60;;;11.90;96.70;;;;;;4961374;28;20027;-72
2021/12/05 15:32:43;;;;;;;7.03;1.65;;;11.80;96.70;;;;;;4942272;28;20101;-73
2021/12/05 15:35:14;;;;;;;8.15;1.92;;;11.80;96.70;;;;;;4942997;28;20160;-74
2021/12/05 15:37:47;;;;;;;6.63;2.03;;;11.70;96.70;;;;;;4941688;28;20050;-73
2021/12/05 15:40:16;;;;;;;9.70;2.05;;;11.60;96.70;;;;;;4958560;28;20050;-73
2021/12/05 15:42:44;;;;;;;7.55;2.30;;;11.60;96.70;;;;;;4958993;28;20863;-74
2021/12/05 15:45:16;;;;;;;10.98;2.05;;;11.50;96.70;;;;;;4942286;28;20042;-74
2021/12/05 15:47:46;;;;;;;9.38;3.60;;;11.40;96.70;;;;;;4947797;28;20505;-74
2021/12/05 15:50:16;;;;;;;12.45;7.57;;;11.50;96.70;;;;;;4964709;28;20035;-74
2021/12/05 15:52:47;;;;;;;11.00;6.57;;;11.60;96.70;;;;;;4963385;28;20134;-73
2021/12/05 15:55:19;;;;;;;11.70;5.93;;;11.70;96.70;;;;;;4945263;28;20047;-74
2021/12/05 15:57:49;;;;;;;14.40;6.85;;;11.70;96.70;;;;;;4964610;28;20073;-72
2021/12/05 16:00:24;;;;;;;16.42;6.90;;;11.80;96.70;;;;;;4945235;28;20043;-74
2021/12/05 16:03:01;;;;;;;13.27;6.50;;;11.70;96.70;;;;;;4966305;28;20412;-73
2021/12/05 16:05:30;;;;;;;11.40;6.28;;;11.80;96.70;;;;;;4964499;28;20449;-74
2021/12/05 16:08:05;;;;;;;16.33;8.48;;;11.80;96.70;;;;;;4941549;28;20065;-74
2021/12/05 16:10:35;;;;;;;15.48;7.30;;;11.70;96.70;;;;;;4947950;28;20039;-73
2021/12/05 16:13:11;;;;;;;19.00;9.65;;;11.50;96.70;;;;;;4942359;28;20467;-73
2021/12/05 16:15:43;;;;;;;13.68;8.10;;;11.50;96.70;;;;;;4944889;28;20058;-73
2021/12/05 16:18:12;;;;;;;19.17;9.38;;;11.60;96.70;;;;;;4965762;28;20428;-73
2021/12/05 16:20:43;;;;;;;15.65;7.88;;;11.60;96.70;;;;;;4945821;28;20047;-73
2021/12/05 16:23:15;;;;;;;15.05;8.23;;;11.60;96.70;;;;;;4963477;28;20446;-73
2021/12/05 16:26:04;;;;;;;17.70;9.15;;;11.60;96.70;;;;;;4946866;28;20563;-73
2021/12/05 16:28:35;;;;;;;21.20;11.27;;;11.60;96.70;;;;;;4946032;28;20081;-73
2021/12/05 16:31:10;;;;;;;21.92;13.88;;;11.30;96.70;;;;;;4925808;28;20209;-74
2021/12/05 16:33:42;;;;;;;19.83;10.32;;;11.10;96.70;;;;;;4945532;28;20074;-73
2021/12/05 16:36:10;;;;;;;23.20;12.23;;;11.10;96.70;;;;;;4963702;28;20050;-74
2021/12/05 16:38:39;;;;;;;20.63;12.10;;;11.30;96.70;;;;;;4940652;28;20578;-74
2021/12/05 16:41:15;;;;;;;20.45;11.75;;;11.30;96.70;;;;;;4943246;28;20485;-75
2021/12/05 16:43:54;;;;;;;16.10;11.27;;;11.40;96.70;;;;;;4963877;28;20043;-76
2021/12/05 16:46:28;;;;;;;15.55;9.35;;;11.40;96.70;;;;;;4941663;28;20043;-73
2021/12/05 16:48:58;;;;;;;13.35;9.10;;;11.50;96.70;;;;;;4946753;28;20065;-70
2021/12/05 16:51:30;;;;;;;13.02;8.30;;;11.50;96.70;;;;;;4944382;28;20111;-70
2021/12/05 16:54:04;;;;;;;18.05;9.30;;;11.70;96.70;;;;;;4939534;28;20066;-69
2021/12/05 16:56:40;;;;;;;17.58;9.75;;;11.70;96.70;;;;;;4962711;28;20070;-69
2021/12/05 16:59:12;;;;;;;18.33;9.23;;;11.80;96.70;;;;;;4963402;28;20053;-69
2021/12/05 17:01:46;;;;;;;17.83;9.70;;;11.70;96.70;;;;;;4963377;28;20408;-69
2021/12/05 17:04:15;;;;;;;18.20;9.85;;;11.50;96.70;;;;;;4959088;28;20054;-69
2021/12/05 17:06:49;;;;;;;18.05;9.68;;;11.10;96.70;;;;;;4946652;28;20066;-69
2021/12/05 17:09:18;;;;;;;24.45;19.80;;;11.10;96.70;;;;;;4963374;28;20068;-69
2021/12/05 17:11:47;;;;;;;22.90;13.48;;;11.20;96.70;;;;;;4963400;28;20042;-69
2021/12/05 17:14:24;;;;;;;18.35;11.38;;;11.10;96.70;;;;;;4919071;28;20150;-69
2021/12/05 17:16:55;;;;;;;19.83;11.25;;;11.20;96.70;;;;;;4935863;28;20389;-69
2021/12/05 17:19:27;;;;;;;19.25;12.20;;;11.30;96.70;;;;;;4962147;28;20117;-69
2021/12/05 17:21:56;;;;;;;21.33;11.88;;;11.20;96.70;;;;;;4927266;28;20604;-72
2021/12/05 17:24:26;;;;;;;21.08;12.75;;;11.00;96.70;;;;;;4945973;28;20046;-70
2021/12/05 17:26:56;;;;;;;25.98;14.20;;;10.90;96.70;;;;;;4945226;28;20166;-69
2021/12/05 17:29:26;;;;;;;26.27;14.68;;;10.80;96.70;;;;;;4945789;28;20039;-69
2021/12/05 17:31:59;;;;;;;22.70;13.25;;;10.70;96.70;;;;;;4962438;28;20050;-70
2021/12/05 17:34:30;;;;;;;25.02;13.45;;;11.00;96.70;;;;;;4957911;28;20043;-71
2021/12/05 17:37:00;;;;;;;29.77;15.10;;;11.00;96.70;;;;;;4937656;28;20513;-70
2021/12/05 17:39:31;;;;;;;28.42;14.98;;;11.00;96.70;;;;;;4917846;28;20391;-70
2021/12/05 17:42:02;;;;;;;31.30;17.05;;;11.20;96.70;;;;;;4960068;28;20065;-70
2021/12/05 17:44:31;;;;;;;30.45;18.02;;;11.20;96.70;;;;;;4941505;28;20492;-70
2021/12/05 17:47:06;;;;;;;32.78;19.77;;;11.10;96.70;;;;;;4940931;28;20043;-69
2021/12/05 17:49:38;;;;;;;37.22;19.40;;;11.00;96.70;;;;;;4945548;28;20101;-70
2021/12/05 17:52:08;;;;;;;30.88;15.65;;;10.70;96.70;;;;;;4960223;28;20054;-71
2021/12/05 17:54:53;;;;;;;35.53;17.08;;;10.50;96.70;;;;;;4937218;28;20504;-70
2021/12/05 17:57:38;;;;;;;24.10;12.45;;;10.60;96.70;;;;;;4943613;28;20078;-70
2021/12/05 18:00:15;;;;;;;22.13;11.20;;;10.50;96.70;;;;;;4945372;28;20050;-69
2021/12/05 18:02:47;;;;;;;18.58;11.60;;;10.40;96.70;;;;;;4925939;28;20078;-70
2021/12/05 18:05:19;;;;;;;20.60;12.30;;;10.30;96.70;;;;;;4946450;28;20141;-69
2021/12/05 18:07:48;;;;;;;20.88;11.63;;;10.30;96.70;;;;;;4963268;28;20086;-69
2021/12/05 18:10:20;;;;;;;17.45;11.23;;;10.20;96.70;;;;;;4962755;28;20118;-70
2021/12/05 18:12:49;;;;;;;16.60;10.35;;;10.10;96.70;;;;;;4942413;29;20047;-69
2021/12/05 18:15:34;;;;;;;20.33;10.82;;;10.00;96.70;;;;;;4945360;28;20485;-69
2021/12/05 18:18:05;;;;;;;25.60;17.02;;;10.00;96.70;;;;;;4960498;28;20047;-69
2021/12/05 18:20:35;;;;;;;31.92;26.90;;;9.90;96.70;;;;;;4963978;28;20046;-69
2021/12/05 18:23:06;;;;;;;24.23;20.52;;;9.80;96.70;;;;;;4967026;28;20034;-69
2021/12/05 18:25:36;;;;;;;27.00;18.52;;;9.70;96.70;;;;;;4944523;28;20047;-70
2021/12/05 18:28:05;;;;;;;22.85;17.20;;;9.70;96.70;;;;;;4942927;28;20075;-69
2021/12/05 18:30:36;;;;;;;21.58;14.65;;;9.80;96.70;;;;;;4940800;28;20054;-70
2021/12/05 18:33:08;;;;;;;23.77;16.25;;;9.70;96.70;;;;;;4936668;28;20595;-69
2021/12/05 18:35:37;;;;;;;24.77;15.98;;;9.70;96.70;;;;;;4961081;28;20050;-69